sensor_id;sensor_type;location;lat;lon;timestamp;P1;durP1;ratioP1;P2;durP2;ratioP2
52047;SDS011;46904;49.438;8.752;2023-01-31T00:01:29;8.50;;;5.82;;
52047;SDS011;46904;49.438;8.752;2023-01-31T00:03:56;11.63;;;5.80;;
52047;SDS011;46904;49.438;8.752;2023-01-31T00:06:26;9.93;;;5.97;;
52047;SDS011;46904;49.438;8.752;2023-01-31T00:08:52;9.60;;;5.85;;
52047;SDS011;46904;49.438;8.752;2023-01-31T00:11:19;11.45;;;6.47;;
52047;SDS011;46904;49.438;8.752;2023-01-31T00:13:45;10.07;;;6.55;;
52047;SDS011;46904;49.438;8.752;2023-01-31T00:16:11;10.85;;;5.78;;
52047;SDS011;46904;49.438;8.752;2023-01-31T00:18:37;9.52;;;6.28;;
52047;SDS011;46904;49.438;8.752;2023-01-31T00:21:08;14.02;;;6.55;;
52047;SDS011;46904;49.438;8.752;2023-01-31T00:23:39;15.88;;;6.72;;
52047;SDS011;46904;49.438;8.752;2023-01-31T00:26:18;10.60;;;6.18;;
52047;SDS011;46904;49.438;8.752;2023-01-31T00:28:45;9.48;;;6.47;;
52047;SDS011;46904;49.438;8.752;2023-01-31T00:31:11;11.80;;;6.35;;
52047;SDS011;46904;49.438;8.752;2023-01-31T00:33:38;10.30;;;5.90;;
52047;SDS011;46904;49.438;8.752;2023-01-31T00:36:08;10.73;;;6.22;;
52047;SDS011;46904;49.438;8.752;2023-01-31T00:38:34;11.77;;;6.13;;
52047;SDS011;46904;49.438;8.752;2023-01-31T00:41:00;11.48;;;5.53;;
52047;SDS011;46904;49.438;8.752;2023-01-31T00:43:26;9.02;;;5.68;;
52047;SDS011;46904;49.438;8.752;2023-01-31T00:45:51;11.75;;;6.78;;
52047;SDS011;46904;49.438;8.752;2023-01-31T00:48:17;11.35;;;6.20;;
52047;SDS011;46904;49.438;8.752;2023-01-31T00:50:43;12.05;;;6.57;;
52047;SDS011;46904;49.438;8.752;2023-01-31T00:53:08;9.40;;;5.85;;
52047;SDS011;46904;49.438;8.752;2023-01-31T00:55:34;9.63;;;6.05;;
52047;SDS011;46904;49.438;8.752;2023-01-31T00:58:04;9.73;;;5.85;;
52047;SDS011;46904;49.438;8.752;2023-01-31T01:00:29;10.75;;;5.68;;
52047;SDS011;46904;49.438;8.752;2023-01-31T01:02:55;11.25;;;6.20;;
52047;SDS011;46904;49.438;8.752;2023-01-31T01:05:20;11.73;;;5.95;;
52047;SDS011;46904;49.438;8.752;2023-01-31T01:07:46;10.15;;;6.32;;
52047;SDS011;46904;49.438;8.752;2023-01-31T01:10:12;8.52;;;5.43;;
52047;SDS011;46904;49.438;8.752;2023-01-31T01:12:37;10.13;;;5.78;;
52047;SDS011;46904;49.438;8.752;2023-01-31T01:15:03;10.32;;;6.20;;
52047;SDS011;46904;49.438;8.752;2023-01-31T01:17:29;12.15;;;6.07;;
52047;SDS011;46904;49.438;8.752;2023-01-31T01:19:54;10.90;;;6.32;;
52047;SDS011;46904;49.438;8.752;2023-01-31T01:22:20;17.70;;;7.20;;
52047;SDS011;46904;49.438;8.752;2023-01-31T01:24:49;9.60;;;6.43;;
52047;SDS011;46904;49.438;8.752;2023-01-31T09:33:38;12.80;;;5.68;;
52047;SDS011;46904;49.438;8.752;2023-01-31T09:36:07;10.70;;;5.50;;
52047;SDS011;46904;49.438;8.752;2023-01-31T09:38:35;17.33;;;6.38;;
52047;SDS011;46904;49.438;8.752;2023-01-31T09:41:05;10.48;;;5.78;;
52047;SDS011;46904;49.438;8.752;2023-01-31T09:43:38;14.88;;;6.60;;
52047;SDS011;46904;49.438;8.752;2023-01-31T09:46:05;13.00;;;6.25;;
52047;SDS011;46904;49.438;8.752;2023-01-31T09:48:34;12.32;;;6.57;;
52047;SDS011;46904;49.438;8.752;2023-01-31T09:51:04;11.50;;;5.77;;
52047;SDS011;46904;49.438;8.752;2023-01-31T09:53:31;10.93;;;5.72;;
52047;SDS011;46904;49.438;8.752;2023-01-31T10:01:24;9.98;;;5.63;;
52047;SDS011;46904;49.438;8.752;2023-01-31T10:03:55;12.75;;;6.57;;
52047;SDS011;46904;49.438;8.752;2023-01-31T10:06:29;13.88;;;5.82;;
52047;SDS011;46904;49.438;8.752;2023-01-31T10:13:55;10.30;;;5.32;;
52047;SDS011;46904;49.438;8.752;2023-01-31T10:18:48;9.98;;;5.65;;
52047;SDS011;46904;49.438;8.752;2023-01-31T10:21:18;12.57;;;5.70;;
52047;SDS011;46904;49.438;8.752;2023-01-31T10:23:47;11.85;;;6.00;;
52047;SDS011;46904;49.438;8.752;2023-01-31T10:26:16;14.88;;;5.82;;
52047;SDS011;46904;49.438;8.752;2023-01-31T10:31:15;13.35;;;5.65;;
52047;SDS011;46904;49.438;8.752;2023-01-31T10:33:46;13.10;;;4.97;;
52047;SDS011;46904;49.438;8.752;2023-01-31T10:36:35;10.30;;;5.13;;
52047;SDS011;46904;49.438;8.752;2023-01-31T10:41:33;10.75;;;5.53;;
52047;SDS011;46904;49.438;8.752;2023-01-31T10:44:04;9.77;;;4.55;;
52047;SDS011;46904;49.438;8.752;2023-01-31T10:46:31;9.45;;;4.72;;
52047;SDS011;46904;49.438;8.752;2023-01-31T10:48:57;9.98;;;4.90;;
52047;SDS011;46904;49.438;8.752;2023-01-31T10:56:58;10.30;;;5.05;;
52047;SDS011;46904;49.438;8.752;2023-01-31T10:59:35;7.32;;;4.43;;
52047;SDS011;46904;49.438;8.752;2023-01-31T11:02:01;10.13;;;4.70;;
52047;SDS011;46904;49.438;8.752;2023-01-31T11:04:35;9.57;;;4.80;;
52047;SDS011;46904;49.438;8.752;2023-01-31T11:07:02;9.18;;;4.70;;
52047;SDS011;46904;49.438;8.752;2023-01-31T11:09:30;8.10;;;4.57;;
52047;SDS011;46904;49.438;8.752;2023-01-31T11:11:58;10.63;;;4.93;;
52047;SDS011;46904;49.438;8.752;2023-01-31T11:14:24;13.20;;;5.40;;
52047;SDS011;46904;49.438;8.752;2023-01-31T11:16:54;10.85;;;5.05;;
52047;SDS011;46904;49.438;8.752;2023-01-31T11:21:55;12.90;;;4.50;;
52047;SDS011;46904;49.438;8.752;2023-01-31T11:24:22;11.20;;;4.32;;
52047;SDS011;46904;49.438;8.752;2023-01-31T11:26:56;8.77;;;4.55;;
52047;SDS011;46904;49.438;8.752;2023-01-31T11:29:44;9.90;;;4.43;;
52047;SDS011;46904;49.438;8.752;2023-01-31T11:32:21;7.55;;;4.50;;
52047;SDS011;46904;49.438;8.752;2023-01-31T11:35:21;6.97;;;3.55;;
52047;SDS011;46904;49.438;8.752;2023-01-31T11:43:03;9.43;;;4.50;;
52047;SDS011;46904;49.438;8.752;2023-01-31T11:45:27;8.93;;;3.95;;
52047;SDS011;46904;49.438;8.752;2023-01-31T11:47:56;9.88;;;4.07;;
52047;SDS011;46904;49.438;8.752;2023-01-31T11:50:26;8.30;;;3.95;;
52047;SDS011;46904;49.438;8.752;2023-01-31T11:52:55;8.30;;;4.22;;
52047;SDS011;46904;49.438;8.752;2023-01-31T11:55:22;9.48;;;4.45;;
52047;SDS011;46904;49.438;8.752;2023-01-31T11:57:52;9.73;;;4.03;;
52047;SDS011;46904;49.438;8.752;2023-01-31T12:00:20;9.80;;;4.07;;
52047;SDS011;46904;49.438;8.752;2023-01-31T12:02:46;9.15;;;4.03;;
52047;SDS011;46904;49.438;8.752;2023-01-31T12:05:14;11.07;;;3.60;;
52047;SDS011;46904;49.438;8.752;2023-01-31T12:07:43;8.63;;;4.70;;
52047;SDS011;46904;49.438;8.752;2023-01-31T12:12:53;9.98;;;4.68;;
52047;SDS011;46904;49.438;8.752;2023-01-31T12:15:21;9.65;;;4.50;;
52047;SDS011;46904;49.438;8.752;2023-01-31T12:17:47;10.77;;;4.70;;
52047;SDS011;46904;49.438;8.752;2023-01-31T12:20:19;6.07;;;3.78;;
52047;SDS011;46904;49.438;8.752;2023-01-31T12:28:12;7.82;;;3.92;;
52047;SDS011;46904;49.438;8.752;2023-01-31T12:46:06;8.40;;;4.50;;
52047;SDS011;46904;49.438;8.752;2023-01-31T12:51:06;11.18;;;5.18;;
52047;SDS011;46904;49.438;8.752;2023-01-31T12:56:25;6.70;;;3.97;;
52047;SDS011;46904;49.438;8.752;2023-01-31T12:59:16;8.00;;;3.88;;
52047;SDS011;46904;49.438;8.752;2023-01-31T13:07:09;5.65;;;3.95;;
52047;SDS011;46904;49.438;8.752;2023-01-31T13:09:36;7.55;;;4.40;;
52047;SDS011;46904;49.438;8.752;2023-01-31T13:12:07;7.25;;;4.57;;
52047;SDS011;46904;49.438;8.752;2023-01-31T13:14:39;7.15;;;4.80;;
52047;SDS011;46904;49.438;8.752;2023-01-31T13:17:06;11.70;;;5.00;;
52047;SDS011;46904;49.438;8.752;2023-01-31T13:19:40;8.82;;;4.60;;
52047;SDS011;46904;49.438;8.752;2023-01-31T13:22:13;8.75;;;5.20;;
52047;SDS011;46904;49.438;8.752;2023-01-31T13:24:45;7.03;;;4.13;;
52047;SDS011;46904;49.438;8.752;2023-01-31T13:27:32;14.77;;;5.05;;
52047;SDS011;46904;49.438;8.752;2023-01-31T13:30:00;8.18;;;4.50;;
52047;SDS011;46904;49.438;8.752;2023-01-31T13:32:44;6.20;;;3.90;;
52047;SDS011;46904;49.438;8.752;2023-01-31T13:37:39;8.77;;;4.30;;
52047;SDS011;46904;49.438;8.752;2023-01-31T13:40:18;5.65;;;4.22;;
52047;SDS011;46904;49.438;8.752;2023-01-31T13:42:44;6.50;;;4.07;;
52047;SDS011;46904;49.438;8.752;2023-01-31T13:45:18;6.72;;;4.32;;
52047;SDS011;46904;49.438;8.752;2023-01-31T13:47:46;8.02;;;4.18;;
52047;SDS011;46904;49.438;8.752;2023-01-31T13:52:40;8.18;;;4.43;;
52047;SDS011;46904;49.438;8.752;2023-01-31T13:55:22;6.00;;;4.18;;
52047;SDS011;46904;49.438;8.752;2023-01-31T14:00:50;6.68;;;4.05;;
52047;SDS011;46904;49.438;8.752;2023-01-31T14:03:32;8.60;;;4.32;;
52047;SDS011;46904;49.438;8.752;2023-01-31T14:07:20;8.77;;;5.20;;
52047;SDS011;46904;49.438;8.752;2023-01-31T14:09:21;7.93;;;3.95;;
52047;SDS011;46904;49.438;8.752;2023-01-31T14:11:48;7.05;;;4.28;;
52047;SDS011;46904;49.438;8.752;2023-01-31T14:14:28;7.72;;;4.20;;
52047;SDS011;46904;49.438;8.752;2023-01-31T14:17:02;8.30;;;4.43;;
52047;SDS011;46904;49.438;8.752;2023-01-31T14:19:29;6.60;;;4.18;;
52047;SDS011;46904;49.438;8.752;2023-01-31T14:33:03;6.55;;;4.50;;
52047;SDS011;46904;49.438;8.752;2023-01-31T14:43:11;6.55;;;4.45;;
52047;SDS011;46904;49.438;8.752;2023-01-31T14:48:31;7.70;;;4.53;;
52047;SDS011;46904;49.438;8.752;2023-01-31T14:51:52;10.15;;;4.70;;
52047;SDS011;46904;49.438;8.752;2023-01-31T14:56:51;9.52;;;5.00;;
52047;SDS011;46904;49.438;8.752;2023-01-31T14:59:22;7.47;;;4.63;;
52047;SDS011;46904;49.438;8.752;2023-01-31T15:01:48;7.13;;;4.50;;
52047;SDS011;46904;49.438;8.752;2023-01-31T15:04:18;10.68;;;4.88;;
52047;SDS011;46904;49.438;8.752;2023-01-31T15:06:46;8.68;;;4.82;;
52047;SDS011;46904;49.438;8.752;2023-01-31T15:11:45;7.95;;;4.80;;
52047;SDS011;46904;49.438;8.752;2023-01-31T15:16:56;6.65;;;4.03;;
52047;SDS011;46904;49.438;8.752;2023-01-31T15:19:33;8.98;;;5.40;;
52047;SDS011;46904;49.438;8.752;2023-01-31T15:22:06;8.07;;;5.30;;
52047;SDS011;46904;49.438;8.752;2023-01-31T15:24:55;8.43;;;4.50;;
52047;SDS011;46904;49.438;8.752;2023-01-31T15:30:16;7.85;;;4.57;;
52047;SDS011;46904;49.438;8.752;2023-01-31T15:32:55;6.90;;;4.70;;
52047;SDS011;46904;49.438;8.752;2023-01-31T15:35:31;7.45;;;5.03;;
52047;SDS011;46904;49.438;8.752;2023-01-31T15:40:46;8.68;;;4.55;;
52047;SDS011;46904;49.438;8.752;2023-01-31T15:43:17;9.88;;;5.15;;
52047;SDS011;46904;49.438;8.752;2023-01-31T15:45:48;9.75;;;5.05;;
52047;SDS011;46904;49.438;8.752;2023-01-31T15:48:17;9.25;;;5.38;;
52047;SDS011;46904;49.438;8.752;2023-01-31T15:50:56;8.57;;;4.65;;
52047;SDS011;46904;49.438;8.752;2023-01-31T15:55:55;6.57;;;4.18;;
52047;SDS011;46904;49.438;8.752;2023-01-31T15:58:23;6.32;;;4.65;;
52047;SDS011;46904;49.438;8.752;2023-01-31T16:00:56;7.85;;;4.53;;
52047;SDS011;46904;49.438;8.752;2023-01-31T16:03:26;7.22;;;4.53;;
52047;SDS011;46904;49.438;8.752;2023-01-31T16:05:52;9.23;;;4.50;;
52047;SDS011;46904;49.438;8.752;2023-01-31T16:10:50;6.32;;;4.40;;
52047;SDS011;46904;49.438;8.752;2023-01-31T16:13:15;7.90;;;4.70;;
52047;SDS011;46904;49.438;8.752;2023-01-31T16:16:00;8.93;;;5.00;;
52047;SDS011;46904;49.438;8.752;2023-01-31T16:18:36;7.80;;;4.57;;
52047;SDS011;46904;49.438;8.752;2023-01-31T16:21:37;7.68;;;4.35;;
52047;SDS011;46904;49.438;8.752;2023-01-31T16:24:00;8.73;;;4.77;;
52047;SDS011;46904;49.438;8.752;2023-01-31T16:26:29;8.20;;;4.90;;
52047;SDS011;46904;49.438;8.752;2023-01-31T16:28:59;6.03;;;4.32;;
52047;SDS011;46904;49.438;8.752;2023-01-31T16:31:30;7.10;;;5.00;;
52047;SDS011;46904;49.438;8.752;2023-01-31T16:33:57;9.70;;;5.15;;
52047;SDS011;46904;49.438;8.752;2023-01-31T16:36:25;8.48;;;3.92;;
52047;SDS011;46904;49.438;8.752;2023-01-31T16:39:09;10.13;;;4.82;;
52047;SDS011;46904;49.438;8.752;2023-01-31T16:41:45;8.43;;;4.28;;
52047;SDS011;46904;49.438;8.752;2023-01-31T16:44:12;7.60;;;4.10;;
52047;SDS011;46904;49.438;8.752;2023-01-31T16:46:39;13.82;;;4.40;;
52047;SDS011;46904;49.438;8.752;2023-01-31T16:49:06;7.55;;;4.35;;
52047;SDS011;46904;49.438;8.752;2023-01-31T16:51:42;6.43;;;4.30;;
52047;SDS011;46904;49.438;8.752;2023-01-31T16:56:47;7.20;;;4.70;;
52047;SDS011;46904;49.438;8.752;2023-01-31T17:02:00;8.65;;;4.22;;
52047;SDS011;46904;49.438;8.752;2023-01-31T17:04:27;5.18;;;3.75;;
52047;SDS011;46904;49.438;8.752;2023-01-31T17:07:00;6.45;;;4.07;;
52047;SDS011;46904;49.438;8.752;2023-01-31T17:09:30;7.10;;;3.70;;
52047;SDS011;46904;49.438;8.752;2023-01-31T17:11:57;6.78;;;3.85;;
52047;SDS011;46904;49.438;8.752;2023-01-31T17:14:23;5.95;;;3.92;;
52047;SDS011;46904;49.438;8.752;2023-01-31T17:16:49;6.88;;;3.95;;
52047;SDS011;46904;49.438;8.752;2023-01-31T17:19:15;10.50;;;3.83;;
52047;SDS011;46904;49.438;8.752;2023-01-31T17:21:41;6.68;;;3.75;;
52047;SDS011;46904;49.438;8.752;2023-01-31T17:24:16;7.35;;;3.83;;
52047;SDS011;46904;49.438;8.752;2023-01-31T17:26:43;6.90;;;4.03;;
52047;SDS011;46904;49.438;8.752;2023-01-31T17:29:08;8.52;;;4.70;;
52047;SDS011;46904;49.438;8.752;2023-01-31T17:31:34;7.07;;;4.05;;
52047;SDS011;46904;49.438;8.752;2023-01-31T17:34:00;9.07;;;4.32;;
52047;SDS011;46904;49.438;8.752;2023-01-31T17:36:25;10.52;;;4.65;;
52047;SDS011;46904;49.438;8.752;2023-01-31T17:38:51;6.65;;;4.13;;
52047;SDS011;46904;49.438;8.752;2023-01-31T17:41:17;6.47;;;4.20;;
52047;SDS011;46904;49.438;8.752;2023-01-31T17:43:44;12.45;;;4.68;;
52047;SDS011;46904;49.438;8.752;2023-01-31T17:46:13;7.55;;;5.07;;
52047;SDS011;46904;49.438;8.752;2023-01-31T17:48:39;5.55;;;4.55;;
52047;SDS011;46904;49.438;8.752;2023-01-31T17:51:05;6.30;;;4.45;;
52047;SDS011;46904;49.438;8.752;2023-01-31T17:53:34;8.57;;;4.38;;
52047;SDS011;46904;49.438;8.752;2023-01-31T17:56:00;9.52;;;4.38;;
52047;SDS011;46904;49.438;8.752;2023-01-31T17:58:28;7.50;;;4.13;;
52047;SDS011;46904;49.438;8.752;2023-01-31T18:00:54;9.48;;;4.78;;
52047;SDS011;46904;49.438;8.752;2023-01-31T18:03:21;6.80;;;4.38;;
52047;SDS011;46904;49.438;8.752;2023-01-31T18:05:47;6.57;;;4.13;;
52047;SDS011;46904;49.438;8.752;2023-01-31T18:08:13;7.50;;;4.13;;
52047;SDS011;46904;49.438;8.752;2023-01-31T18:10:39;7.20;;;4.10;;
52047;SDS011;46904;49.438;8.752;2023-01-31T18:13:05;5.63;;;4.13;;
52047;SDS011;46904;49.438;8.752;2023-01-31T18:15:37;8.02;;;4.57;;
52047;SDS011;46904;49.438;8.752;2023-01-31T18:18:02;7.47;;;4.72;;
52047;SDS011;46904;49.438;8.752;2023-01-31T18:20:28;6.10;;;3.65;;
52047;SDS011;46904;49.438;8.752;2023-01-31T18:22:59;5.97;;;4.03;;
52047;SDS011;46904;49.438;8.752;2023-01-31T18:25:25;6.57;;;4.00;;
52047;SDS011;46904;49.438;8.752;2023-01-31T18:27:51;6.22;;;3.95;;
52047;SDS011;46904;49.438;8.752;2023-01-31T18:30:17;6.68;;;4.47;;
52047;SDS011;46904;49.438;8.752;2023-01-31T18:32:42;6.85;;;4.78;;
52047;SDS011;46904;49.438;8.752;2023-01-31T18:35:08;6.60;;;3.65;;
52047;SDS011;46904;49.438;8.752;2023-01-31T18:37:34;7.15;;;3.90;;
52047;SDS011;46904;49.438;8.752;2023-01-31T18:39:59;5.60;;;4.10;;
52047;SDS011;46904;49.438;8.752;2023-01-31T18:42:25;6.28;;;3.78;;
52047;SDS011;46904;49.438;8.752;2023-01-31T18:44:51;5.60;;;3.75;;
52047;SDS011;46904;49.438;8.752;2023-01-31T18:47:16;7.05;;;3.85;;
52047;SDS011;46904;49.438;8.752;2023-01-31T18:49:42;5.78;;;3.60;;
52047;SDS011;46904;49.438;8.752;2023-01-31T18:52:07;5.97;;;4.15;;
52047;SDS011;46904;49.438;8.752;2023-01-31T18:54:33;6.82;;;4.07;;
52047;SDS011;46904;49.438;8.752;2023-01-31T18:56:59;9.10;;;4.72;;
52047;SDS011;46904;49.438;8.752;2023-01-31T18:59:25;8.77;;;5.00;;
52047;SDS011;46904;49.438;8.752;2023-01-31T19:01:51;6.80;;;4.05;;
52047;SDS011;46904;49.438;8.752;2023-01-31T19:04:17;5.68;;;4.55;;
52047;SDS011;46904;49.438;8.752;2023-01-31T19:06:43;6.93;;;4.60;;
52047;SDS011;46904;49.438;8.752;2023-01-31T19:09:09;6.40;;;4.25;;
52047;SDS011;46904;49.438;8.752;2023-01-31T19:11:34;5.55;;;4.30;;
52047;SDS011;46904;49.438;8.752;2023-01-31T19:14:04;6.88;;;4.07;;
52047;SDS011;46904;49.438;8.752;2023-01-31T19:16:30;6.43;;;3.70;;
52047;SDS011;46904;49.438;8.752;2023-01-31T19:18:56;8.15;;;5.13;;
52047;SDS011;46904;49.438;8.752;2023-01-31T19:21:22;4.72;;;3.55;;
52047;SDS011;46904;49.438;8.752;2023-01-31T19:23:52;7.05;;;4.72;;
52047;SDS011;46904;49.438;8.752;2023-01-31T19:26:20;5.53;;;3.95;;
52047;SDS011;46904;49.438;8.752;2023-01-31T19:28:49;5.90;;;4.05;;
52047;SDS011;46904;49.438;8.752;2023-01-31T19:31:19;5.50;;;3.65;;
52047;SDS011;46904;49.438;8.752;2023-01-31T19:33:47;7.38;;;3.63;;
52047;SDS011;46904;49.438;8.752;2023-01-31T19:36:24;5.82;;;3.85;;
52047;SDS011;46904;49.438;8.752;2023-01-31T19:38:50;5.03;;;3.67;;
52047;SDS011;46904;49.438;8.752;2023-01-31T19:41:18;6.28;;;3.97;;
52047;SDS011;46904;49.438;8.752;2023-01-31T19:43:44;5.03;;;3.55;;
52047;SDS011;46904;49.438;8.752;2023-01-31T19:46:10;5.38;;;4.03;;
52047;SDS011;46904;49.438;8.752;2023-01-31T19:48:36;5.97;;;3.78;;
52047;SDS011;46904;49.438;8.752;2023-01-31T19:51:08;5.03;;;3.40;;
52047;SDS011;46904;49.438;8.752;2023-01-31T19:53:34;4.82;;;3.28;;
52047;SDS011;46904;49.438;8.752;2023-01-31T19:56:01;5.28;;;3.83;;
52047;SDS011;46904;49.438;8.752;2023-01-31T19:58:27;4.88;;;3.53;;
52047;SDS011;46904;49.438;8.752;2023-01-31T20:00:53;4.80;;;3.45;;
52047;SDS011;46904;49.438;8.752;2023-01-31T20:03:20;7.90;;;4.55;;
52047;SDS011;46904;49.438;8.752;2023-01-31T20:05:46;8.07;;;4.80;;
52047;SDS011;46904;49.438;8.752;2023-01-31T20:08:11;5.63;;;3.58;;
52047;SDS011;46904;49.438;8.752;2023-01-31T20:10:40;6.70;;;4.00;;
52047;SDS011;46904;49.438;8.752;2023-01-31T20:13:12;9.05;;;4.63;;
52047;SDS011;46904;49.438;8.752;2023-01-31T20:15:40;7.35;;;4.68;;
52047;SDS011;46904;49.438;8.752;2023-01-31T20:18:05;6.93;;;4.53;;
52047;SDS011;46904;49.438;8.752;2023-01-31T20:20:31;7.20;;;3.78;;
52047;SDS011;46904;49.438;8.752;2023-01-31T20:22:57;5.75;;;4.13;;
52047;SDS011;46904;49.438;8.752;2023-01-31T20:25:23;5.28;;;3.83;;
52047;SDS011;46904;49.438;8.752;2023-01-31T20:27:48;6.97;;;4.20;;
52047;SDS011;46904;49.438;8.752;2023-01-31T20:30:14;5.70;;;4.10;;
52047;SDS011;46904;49.438;8.752;2023-01-31T20:32:40;4.75;;;3.40;;
52047;SDS011;46904;49.438;8.752;2023-01-31T20:35:05;5.45;;;3.58;;
52047;SDS011;46904;49.438;8.752;2023-01-31T20:37:34;4.82;;;3.55;;
52047;SDS011;46904;49.438;8.752;2023-01-31T20:40:00;5.60;;;3.60;;
52047;SDS011;46904;49.438;8.752;2023-01-31T20:42:25;4.78;;;3.00;;
52047;SDS011;46904;49.438;8.752;2023-01-31T20:44:51;6.00;;;3.85;;
52047;SDS011;46904;49.438;8.752;2023-01-31T20:47:20;5.32;;;2.88;;
52047;SDS011;46904;49.438;8.752;2023-01-31T20:49:55;5.65;;;3.22;;
52047;SDS011;46904;49.438;8.752;2023-01-31T20:52:20;7.05;;;3.38;;
52047;SDS011;46904;49.438;8.752;2023-01-31T20:54:46;4.22;;;2.88;;
52047;SDS011;46904;49.438;8.752;2023-01-31T20:57:12;6.13;;;3.58;;
52047;SDS011;46904;49.438;8.752;2023-01-31T20:59:37;4.93;;;3.50;;
52047;SDS011;46904;49.438;8.752;2023-01-31T21:02:03;5.43;;;3.60;;
52047;SDS011;46904;49.438;8.752;2023-01-31T21:04:29;3.90;;;2.97;;
52047;SDS011;46904;49.438;8.752;2023-01-31T21:06:54;6.40;;;4.13;;
52047;SDS011;46904;49.438;8.752;2023-01-31T21:09:20;5.32;;;4.00;;
52047;SDS011;46904;49.438;8.752;2023-01-31T21:11:45;6.25;;;3.33;;
52047;SDS011;46904;49.438;8.752;2023-01-31T21:14:11;4.25;;;3.28;;
52047;SDS011;46904;49.438;8.752;2023-01-31T21:16:37;3.97;;;3.00;;
52047;SDS011;46904;49.438;8.752;2023-01-31T21:19:02;5.55;;;3.58;;
52047;SDS011;46904;49.438;8.752;2023-01-31T21:21:28;5.93;;;3.33;;
52047;SDS011;46904;49.438;8.752;2023-01-31T21:23:54;4.55;;;2.97;;
52047;SDS011;46904;49.438;8.752;2023-01-31T21:26:20;5.18;;;3.00;;
52047;SDS011;46904;49.438;8.752;2023-01-31T21:28:47;5.57;;;3.25;;
52047;SDS011;46904;49.438;8.752;2023-01-31T21:31:14;4.47;;;3.03;;
52047;SDS011;46904;49.438;8.752;2023-01-31T21:33:40;3.70;;;2.55;;
52047;SDS011;46904;49.438;8.752;2023-01-31T21:36:06;5.18;;;2.63;;
52047;SDS011;46904;49.438;8.752;2023-01-31T21:38:32;4.85;;;3.65;;
52047;SDS011;46904;49.438;8.752;2023-01-31T21:40:58;3.88;;;3.05;;
52047;SDS011;46904;49.438;8.752;2023-01-31T21:43:24;4.70;;;2.92;;
52047;SDS011;46904;49.438;8.752;2023-01-31T21:45:49;3.95;;;2.75;;
52047;SDS011;46904;49.438;8.752;2023-01-31T21:48:15;4.78;;;3.00;;
52047;SDS011;46904;49.438;8.752;2023-01-31T21:50:41;3.20;;;2.47;;
52047;SDS011;46904;49.438;8.752;2023-01-31T21:53:06;7.25;;;3.72;;
52047;SDS011;46904;49.438;8.752;2023-01-31T21:55:41;4.28;;;2.90;;
52047;SDS011;46904;49.438;8.752;2023-01-31T21:58:10;5.72;;;2.95;;
52047;SDS011;46904;49.438;8.752;2023-01-31T22:00:36;4.25;;;3.17;;
52047;SDS011;46904;49.438;8.752;2023-01-31T22:03:01;4.60;;;3.28;;
52047;SDS011;46904;49.438;8.752;2023-01-31T22:05:27;4.45;;;2.88;;
52047;SDS011;46904;49.438;8.752;2023-01-31T22:07:52;5.53;;;3.15;;
52047;SDS011;46904;49.438;8.752;2023-01-31T22:10:27;3.40;;;2.72;;
52047;SDS011;46904;49.438;8.752;2023-01-31T22:12:53;3.95;;;2.70;;
52047;SDS011;46904;49.438;8.752;2023-01-31T22:15:21;3.65;;;2.95;;
52047;SDS011;46904;49.438;8.752;2023-01-31T22:17:46;3.63;;;2.80;;
52047;SDS011;46904;49.438;8.752;2023-01-31T22:20:12;4.78;;;2.97;;
52047;SDS011;46904;49.438;8.752;2023-01-31T22:22:38;3.10;;;2.50;;
52047;SDS011;46904;49.438;8.752;2023-01-31T22:25:03;3.67;;;3.03;;
52047;SDS011;46904;49.438;8.752;2023-01-31T22:27:29;3.78;;;2.85;;
52047;SDS011;46904;49.438;8.752;2023-01-31T22:29:55;3.83;;;2.80;;
52047;SDS011;46904;49.438;8.752;2023-01-31T22:32:20;4.72;;;2.90;;
52047;SDS011;46904;49.438;8.752;2023-01-31T22:34:46;3.22;;;2.55;;
52047;SDS011;46904;49.438;8.752;2023-01-31T22:37:11;3.92;;;2.78;;
52047;SDS011;46904;49.438;8.752;2023-01-31T22:39:37;4.25;;;2.33;;
52047;SDS011;46904;49.438;8.752;2023-01-31T22:42:02;3.78;;;3.05;;
52047;SDS011;46904;49.438;8.752;2023-01-31T22:44:28;3.03;;;2.63;;
52047;SDS011;46904;49.438;8.752;2023-01-31T22:46:54;3.28;;;2.67;;
52047;SDS011;46904;49.438;8.752;2023-01-31T22:49:19;3.10;;;2.78;;
52047;SDS011;46904;49.438;8.752;2023-01-31T22:51:45;3.00;;;2.63;;
52047;SDS011;46904;49.438;8.752;2023-01-31T22:54:10;3.78;;;2.60;;
52047;SDS011;46904;49.438;8.752;2023-01-31T22:56:39;4.90;;;2.88;;
52047;SDS011;46904;49.438;8.752;2023-01-31T22:59:05;5.45;;;3.13;;
52047;SDS011;46904;49.438;8.752;2023-01-31T23:01:31;2.80;;;2.47;;
52047;SDS011;46904;49.438;8.752;2023-01-31T23:03:58;3.75;;;2.60;;
52047;SDS011;46904;49.438;8.752;2023-01-31T23:06:24;3.47;;;2.58;;
52047;SDS011;46904;49.438;8.752;2023-01-31T23:08:50;4.03;;;2.67;;
52047;SDS011;46904;49.438;8.752;2023-01-31T23:11:16;4.50;;;3.30;;
52047;SDS011;46904;49.438;8.752;2023-01-31T23:13:43;2.78;;;2.45;;
52047;SDS011;46904;49.438;8.752;2023-01-31T23:16:11;3.05;;;2.50;;
52047;SDS011;46904;49.438;8.752;2023-01-31T23:18:38;3.47;;;2.70;;
52047;SDS011;46904;49.438;8.752;2023-01-31T23:21:05;3.42;;;2.80;;
52047;SDS011;46904;49.438;8.752;2023-01-31T23:23:31;3.80;;;2.80;;
52047;SDS011;46904;49.438;8.752;2023-01-31T23:25:56;3.47;;;2.85;;
52047;SDS011;46904;49.438;8.752;2023-01-31T23:28:22;3.90;;;2.80;;
52047;SDS011;46904;49.438;8.752;2023-01-31T23:30:47;4.97;;;2.72;;
52047;SDS011;46904;49.438;8.752;2023-01-31T23:33:13;3.75;;;2.83;;
52047;SDS011;46904;49.438;8.752;2023-01-31T23:35:39;3.42;;;2.45;;
52047;SDS011;46904;49.438;8.752;2023-01-31T23:38:04;4.13;;;2.75;;
52047;SDS011;46904;49.438;8.752;2023-01-31T23:40:30;4.55;;;2.55;;
52047;SDS011;46904;49.438;8.752;2023-01-31T23:42:55;3.17;;;2.47;;
52047;SDS011;46904;49.438;8.752;2023-01-31T23:45:21;3.10;;;2.67;;
52047;SDS011;46904;49.438;8.752;2023-01-31T23:47:46;3.80;;;2.63;;
52047;SDS011;46904;49.438;8.752;2023-01-31T23:50:12;4.40;;;2.72;;
52047;SDS011;46904;49.438;8.752;2023-01-31T23:52:37;2.67;;;2.42;;
52047;SDS011;46904;49.438;8.752;2023-01-31T23:55:03;3.20;;;2.50;;
52047;SDS011;46904;49.438;8.752;2023-01-31T23:57:32;3.55;;;2.47;;
52047;SDS011;46904;49.438;8.752;2023-01-31T23:59:58;2.60;;;2.33;;
